Aérodrome :
LOGIN :

S'inscrire | Disclaimer

   EN    FR    IT 

 










Légende :    VFR   VFR Marginal   IFR   IFR Intensif   IFR Très Intensif
Visi : 
Plafond : 
>= 8 km
>= 3000ft
5 à 8 km
1000 à 3000 ft
1500m à 5 km
500 à 1000 ft
800 à 1500m
200 à 500 ft
< 800m
< 200 ft
Symboles :   Orages  Brouillard  Fortes neiges  Fortes précipitations  Vent > 20 kt
SIGMETs :   Divers  Orages  Givrage  Turbulence  Onde Orograph.  Cendres Volcan.






- Altitude de l'aérodrome : 79 ft
- Code IATA : SPU


LDSP - Split

DERNIER METAR :
  • 050200Z AUTO 13006KT 110V170 CAVOK 28/22 Q1007 NOSIG

METARs EXPIRÉS :
  • 050130Z AUTO 12008KT CAVOK 28/22 Q1007
  • 050100Z AUTO 11008KT 070V130 CAVOK 28/22 Q1007
  • 050030Z AUTO 12009KT CAVOK 28/21 Q1007
  • 050000Z AUTO 12009KT 100V160 CAVOK 28/20 Q1007
  • 042330Z AUTO 13010KT 100V160 CAVOK 28/20 Q1007

TAF TAF LDSP
Valide du 05 à 00h jusqu'au 06 à 00h UTC


042325Z 0500/0600 11010KT CAVOK TX31/0513Z TN23/0508Z
BECMG 0503/0505 31009KT
PROB40
TEMPO 0504/0510 30020G30KT 3000 TSRA FEW035CB SCT040
PROB30
TEMPO 0510/0518 23010KT
PROB30
TEMPO 0517/0600 TSRA FEW035CB



MET'MAP, la Météo Aéronautique d'un coup d'oeil ! - Copyright ORBIFLY Décembre 2007 - Disclaimer

ORBIFLY MET'MAP TEAM :

Programmation & Développement : Alexandra Zaïnal
Sur une idée originale de : Baudouin d'Aumeries
Assistance à la programmation : Marc-Olivier Méhu
Soutien technique & logistique : Manuel Goepfert

Contact : metmap@orbifly.com




SOURCES & CREDITS :

   NOAA